Terminal Aerodrome Forecast
Issued by NWS Duluth, MN

Home | Current Version | Previous Version | Text Only | Print | Product List | Glossary On
Versions: 1 2 3 4 5 6 7 8 9 10 11 12 13 14 15 16 17 18 19 20 21
564
FTUS43 KDLH 181202 AAB
TAFDLH
TAF AMD
KDLH 181202Z 1812/1912 25012KT P6SM SCT025 BKN120 WS020/28040KT
      TEMPO 1812/1814 5SM -SN BR BKN025
     FM181400 28012KT P6SM BKN024
     FM182000 28011KT P6SM SCT030 SCT250
     FM190700 24005KT 4SM BR SCT050 SCT150=

USA.gov is the U.S. government's official web portal to all federal, state and local government web resources and services.